PWSweather.com
Personal Weather Stations
Station Observations
BWSWX1
Teesside, BillinghamGB TS23 1DL

TeessideBillinghamGB TS23 1DL

Lat: 54.588219, Lon: -1.289528

Elevation: 39

Station Type: Davis Vantage Pro2 Plus

http://billinghamweather.com/index.php

High Low Average
Temperature 62.2°F16.8°C 48.0°F8.9°C 53.3°F11.8°C
Dew Point 51.0°F10.6°C 45.5°F7.5°C 47.5°F8.6°C
Winds 12.4 mph 20.0 kmh Calm Calm 5.0 mph W8.0 kmh W
Wind Gusts 23.0 mph37.0 kmh -- 9.0 mph14.5 kmh
Humidity 95% 60% 82%
Pressure 29.45 in997.3 mb 28.96 in980.7 mb -
Precipitation 0.44 in11.2 mm - -
Hour Temp Dew Point Humidity Winds Wind Gusts Pressure Precip Precip Rate Daily Precip Total
12:00 AM 51.6°F10.9°C 49.9°F9.9°C 94% 1.1 mph ENE1.8 kmh ENE 4.0 mph6.4 kmh 29.07 in984.4 mb - 0.01 in0.3 mm 0.09 in2.3 mm
12:10 AM 51.8°F11.0°C 50.1°F10.1°C 94% 0.2 mph E0.3 kmh E 1.0 mph1.6 kmh 29.06 in984.1 mb - 0.02 in0.5 mm 0.11 in2.8 mm
12:20 AM 51.8°F11.0°C 50.1°F10.1°C 94% 0.1 mph E0.2 kmh E 2.0 mph3.2 kmh 29.05 in983.7 mb - 0.04 in1.0 mm 0.15 in3.8 mm
12:30 AM 51.8°F11.0°C 50.2°F10.1°C 94% 2.8 mph E4.5 kmh E 8.0 mph12.9 kmh 29.03 in983.1 mb - 0.03 in0.8 mm 0.17 in4.3 mm
12:40 AM 51.8°F11.0°C 50.2°F10.1°C 94% 2.0 mph ENE3.2 kmh ENE 4.0 mph6.4 kmh 29.02 in982.7 mb - 0.01 in0.3 mm 0.18 in4.6 mm
12:50 AM 51.9°F11.1°C 50.2°F10.1°C 94% 0.7 mph NE1.1 kmh NE 2.0 mph3.2 kmh 29.01 in982.4 mb - 0.00 in0.0 mm 0.18 in4.6 mm
01:00 AM 51.9°F11.1°C 50.2°F10.1°C 94% 0.3 mph NE0.5 kmh NE 2.0 mph3.2 kmh 29.00 in982.1 mb - 0.01 in0.3 mm 0.20 in5.1 mm
01:10 AM 52.0°F11.1°C 50.3°F10.2°C 94% 2.7 mph E4.3 kmh E 5.0 mph8.0 kmh 28.99 in981.7 mb - 0.02 in0.5 mm 0.21 in5.3 mm
01:20 AM 52.1°F11.2°C 50.4°F10.2°C 94% 1.7 mph E2.7 kmh E 5.0 mph8.0 kmh 28.98 in981.4 mb - 0.02 in0.5 mm 0.24 in6.1 mm
01:30 AM 52.1°F11.2°C 50.7°F10.4°C 95% 0.1 mph NE0.2 kmh NE 1.0 mph1.6 kmh 28.98 in981.4 mb - 0.01 in0.3 mm 0.24 in6.1 mm
01:40 AM 52.1°F11.2°C 50.7°F10.4°C 95% 0.1 mph NNW0.2 kmh NNW 1.0 mph1.6 kmh 28.97 in981.0 mb - 0.02 in0.5 mm 0.26 in6.6 mm
01:50 AM 52.2°F11.2°C 50.8°F10.4°C 95% 0.2 mph N0.3 kmh N -- 28.97 in981.0 mb - 0.03 in0.8 mm 0.28 in7.1 mm
02:00 AM 52.3°F11.3°C 50.9°F10.5°C 95% 2.8 mph NW4.5 kmh NW 5.0 mph8.0 kmh 28.97 in981.0 mb - 0.02 in0.5 mm 0.30 in7.6 mm
02:10 AM 52.3°F11.3°C 50.9°F10.5°C 95% 3.8 mph NNW6.1 kmh NNW 5.0 mph8.0 kmh 28.97 in981.0 mb - 0.02 in0.5 mm 0.32 in8.1 mm
02:20 AM 52.3°F11.3°C 51.0°F10.6°C 95% 2.1 mph NW3.4 kmh NW 4.0 mph6.4 kmh 28.97 in981.0 mb - 0.03 in0.8 mm 0.35 in8.9 mm
02:30 AM 52.4°F11.3°C 51.0°F10.6°C 95% 2.9 mph WNW4.7 kmh WNW 6.0 mph9.7 kmh 28.96 in980.7 mb - 0.03 in0.8 mm 0.38 in9.7 mm
02:40 AM 52.4°F11.3°C 51.0°F10.6°C 95% 4.1 mph NNW6.6 kmh NNW 7.0 mph11.3 kmh 28.96 in980.7 mb - 0.02 in0.5 mm 0.39 in9.9 mm
02:50 AM 52.2°F11.2°C 50.8°F10.4°C 95% 6.1 mph NNW9.8 kmh NNW 17.0 mph27.4 kmh 28.98 in981.4 mb - 0.00 in0.0 mm 0.39 in9.9 mm
03:00 AM 51.3°F10.7°C 49.6°F9.8°C 94% 10.7 mph NNW17.2 kmh NNW 18.0 mph29.0 kmh 28.99 in981.7 mb - 0.00 in0.0 mm 0.39 in9.9 mm
03:10 AM 50.1°F10.1°C 48.4°F9.1°C 94% 7.8 mph NNW12.6 kmh NNW 19.0 mph30.6 kmh 29.00 in982.1 mb - 0.01 in0.3 mm 0.39 in9.9 mm
03:20 AM 49.5°F9.7°C 48.1°F8.9°C 95% 8.9 mph N14.3 kmh N 15.0 mph24.1 kmh 29.02 in982.7 mb - 0.00 in0.0 mm 0.39 in9.9 mm
03:30 AM 49.5°F9.7°C 48.1°F8.9°C 95% 12.4 mph NW20.0 kmh NW 18.0 mph29.0 kmh 29.04 in983.4 mb - 0.01 in0.3 mm 0.40 in10.2 mm
03:40 AM 49.5°F9.7°C 48.1°F8.9°C 95% 7.4 mph N11.9 kmh N 14.0 mph22.5 kmh 29.05 in983.7 mb - 0.00 in0.0 mm 0.40 in10.2 mm
03:50 AM 49.5°F9.7°C 48.1°F8.9°C 95% 7.7 mph NW12.4 kmh NW 18.0 mph29.0 kmh 29.06 in984.1 mb - 0.01 in0.3 mm 0.41 in10.4 mm
04:00 AM 49.2°F9.6°C 47.8°F8.8°C 95% 10.9 mph NW17.5 kmh NW 17.0 mph27.4 kmh 29.07 in984.4 mb - 0.00 in0.0 mm 0.41 in10.4 mm
04:10 AM 48.9°F9.4°C 47.5°F8.6°C 95% 9.9 mph NNW15.9 kmh NNW 18.0 mph29.0 kmh 29.09 in985.1 mb - 0.00 in0.0 mm 0.41 in10.4 mm
04:20 AM 48.8°F9.3°C 47.4°F8.6°C 95% 10.0 mph NW16.1 kmh NW 14.0 mph22.5 kmh 29.10 in985.4 mb - 0.00 in0.0 mm 0.41 in10.4 mm
04:30 AM 48.7°F9.3°C 47.4°F8.6°C 95% 9.2 mph NW14.8 kmh NW 18.0 mph29.0 kmh 29.11 in985.8 mb - 0.00 in0.0 mm 0.41 in10.4 mm
04:40 AM 48.8°F9.3°C 47.4°F8.6°C 95% 5.4 mph W8.7 kmh W 12.0 mph19.3 kmh 29.12 in986.1 mb - 0.00 in0.0 mm 0.41 in10.4 mm
04:50 AM 48.9°F9.4°C 47.5°F8.6°C 95% 5.8 mph NW9.3 kmh NW 8.0 mph12.9 kmh 29.14 in986.8 mb - 0.01 in0.3 mm 0.42 in10.7 mm
05:00 AM 48.8°F9.3°C 47.4°F8.6°C 95% 5.3 mph NW8.5 kmh NW 9.0 mph14.5 kmh 29.15 in987.1 mb - 0.00 in0.0 mm 0.42 in10.7 mm
05:10 AM 48.6°F9.2°C 47.0°F8.3°C 94% 8.4 mph WNW13.5 kmh WNW 17.0 mph27.4 kmh 29.15 in987.1 mb - 0.00 in0.0 mm 0.42 in10.7 mm
05:20 AM 48.4°F9.1°C 46.8°F8.2°C 94% 5.6 mph W9.0 kmh W 14.0 mph22.5 kmh 29.16 in987.5 mb - 0.00 in0.0 mm 0.42 in10.7 mm
05:30 AM 48.3°F9.1°C 46.7°F8.2°C 94% 6.9 mph WNW11.1 kmh WNW 11.0 mph17.7 kmh 29.17 in987.8 mb - 0.00 in0.0 mm 0.42 in10.7 mm
05:40 AM 48.2°F9.0°C 46.6°F8.1°C 94% 6.4 mph WNW10.3 kmh WNW 9.0 mph14.5 kmh 29.18 in988.1 mb - 0.00 in0.0 mm 0.42 in10.7 mm
05:50 AM 48.2°F9.0°C 46.6°F8.1°C 94% 4.2 mph WNW6.8 kmh WNW 11.0 mph17.7 kmh 29.19 in988.5 mb - 0.00 in0.0 mm 0.43 in10.9 mm
06:00 AM 48.1°F8.9°C 46.5°F8.1°C 94% 5.3 mph WNW8.5 kmh WNW 10.0 mph16.1 kmh 29.20 in988.8 mb - 0.01 in0.3 mm 0.43 in10.9 mm
06:10 AM 48.1°F8.9°C 46.5°F8.1°C 94% 3.9 mph WNW6.3 kmh WNW 7.0 mph11.3 kmh 29.20 in988.8 mb - 0.00 in0.0 mm 0.43 in10.9 mm
06:20 AM 48.1°F8.9°C 46.5°F8.1°C 94% 4.2 mph NW6.8 kmh NW 11.0 mph17.7 kmh 29.21 in989.2 mb - 0.00 in0.0 mm 0.43 in10.9 mm
06:30 AM 48.0°F8.9°C 46.4°F8.0°C 94% 2.7 mph W4.3 kmh W 5.0 mph8.0 kmh 29.21 in989.2 mb - 0.00 in0.0 mm 0.43 in10.9 mm
06:40 AM 48.1°F8.9°C 46.4°F8.0°C 94% 4.3 mph NW6.9 kmh NW 11.0 mph17.7 kmh 29.21 in989.2 mb - 0.00 in0.0 mm 0.43 in10.9 mm
06:50 AM 48.1°F8.9°C 46.2°F7.9°C 93% 4.2 mph NW6.8 kmh NW 6.0 mph9.7 kmh 29.22 in989.5 mb - 0.00 in0.0 mm 0.43 in10.9 mm
07:00 AM 48.3°F9.1°C 46.4°F8.0°C 93% 4.9 mph WSW7.9 kmh WSW 9.0 mph14.5 kmh 29.23 in989.8 mb - 0.00 in0.0 mm 0.43 in10.9 mm
07:10 AM 48.6°F9.2°C 46.7°F8.2°C 93% 4.8 mph WNW7.7 kmh WNW 7.0 mph11.3 kmh 29.23 in989.8 mb - 0.00 in0.0 mm 0.43 in10.9 mm
07:20 AM 48.9°F9.4°C 46.7°F8.2°C 92% 3.6 mph NW5.8 kmh NW 10.0 mph16.1 kmh 29.23 in989.8 mb - 0.00 in0.0 mm 0.43 in10.9 mm
07:30 AM 49.2°F9.6°C 47.0°F8.3°C 92% 4.6 mph NW7.4 kmh NW 9.0 mph14.5 kmh 29.24 in990.2 mb - 0.00 in0.0 mm 0.43 in10.9 mm
07:40 AM 49.5°F9.7°C 47.3°F8.5°C 92% 5.5 mph WNW8.9 kmh WNW 8.0 mph12.9 kmh 29.24 in990.2 mb - 0.00 in0.0 mm 0.43 in10.9 mm
07:50 AM 49.8°F9.9°C 47.0°F8.3°C 90% 6.7 mph WNW10.8 kmh WNW 11.0 mph17.7 kmh 29.24 in990.2 mb - 0.00 in0.0 mm 0.43 in10.9 mm
08:00 AM 50.2°F10.1°C 47.4°F8.6°C 90% 4.7 mph SW7.6 kmh SW 10.0 mph16.1 kmh 29.25 in990.5 mb - 0.00 in0.0 mm 0.43 in10.9 mm
08:10 AM 50.4°F10.2°C 47.3°F8.5°C 89% 6.5 mph W10.5 kmh W 13.0 mph20.9 kmh 29.26 in990.9 mb - 0.00 in0.0 mm 0.43 in10.9 mm
08:20 AM 50.7°F10.4°C 47.3°F8.5°C 88% 8.3 mph W13.4 kmh W 18.0 mph29.0 kmh 29.26 in990.9 mb - 0.00 in0.0 mm 0.43 in10.9 mm
08:30 AM 51.4°F10.8°C 47.6°F8.7°C 87% 7.9 mph NW12.7 kmh NW 13.0 mph20.9 kmh 29.27 in991.2 mb - 0.00 in0.0 mm 0.43 in10.9 mm
08:40 AM 52.3°F11.3°C 48.2°F9.0°C 86% 7.7 mph WSW12.4 kmh WSW 17.0 mph27.4 kmh 29.27 in991.2 mb - 0.00 in0.0 mm 0.43 in10.9 mm
08:50 AM 52.6°F11.4°C 47.9°F8.8°C 84% 7.2 mph W11.6 kmh W 9.0 mph14.5 kmh 29.27 in991.2 mb - 0.00 in0.0 mm 0.43 in10.9 mm
09:00 AM 53.9°F12.2°C 48.9°F9.4°C 83% 6.9 mph NNW11.1 kmh NNW 16.0 mph25.7 kmh 29.27 in991.2 mb - 0.00 in0.0 mm 0.43 in10.9 mm
09:10 AM 54.7°F12.6°C 48.6°F9.2°C 80% 8.4 mph NW13.5 kmh NW 18.0 mph29.0 kmh 29.28 in991.5 mb - 0.00 in0.0 mm 0.43 in10.9 mm
09:20 AM 55.0°F12.8°C 48.9°F9.4°C 80% 6.2 mph NW10.0 kmh NW 19.0 mph30.6 kmh 29.28 in991.5 mb - 0.00 in0.0 mm 0.43 in10.9 mm
09:30 AM 55.5°F13.1°C 48.4°F9.1°C 77% 7.6 mph W12.2 kmh W 18.0 mph29.0 kmh 29.29 in991.9 mb - 0.00 in0.0 mm 0.43 in10.9 mm
09:40 AM 55.8°F13.2°C 48.0°F8.9°C 75% 8.3 mph NW13.4 kmh NW 15.0 mph24.1 kmh 29.29 in991.9 mb - 0.00 in0.0 mm 0.43 in10.9 mm
09:50 AM 55.6°F13.1°C 47.8°F8.8°C 75% 6.2 mph NW10.0 kmh NW 13.0 mph20.9 kmh 29.29 in991.9 mb - 0.00 in0.0 mm 0.43 in10.9 mm
10:00 AM 56.2°F13.4°C 48.4°F9.1°C 75% 9.1 mph NW14.6 kmh NW 17.0 mph27.4 kmh 29.30 in992.2 mb - 0.00 in0.0 mm 0.43 in10.9 mm
10:10 AM 55.7°F13.2°C 47.5°F8.6°C 74% 6.0 mph NW9.7 kmh NW 11.0 mph17.7 kmh 29.30 in992.2 mb - 0.00 in0.0 mm 0.43 in10.9 mm
10:20 AM 55.6°F13.1°C 47.8°F8.8°C 75% 10.1 mph NW16.3 kmh NW 18.0 mph29.0 kmh 29.30 in992.2 mb - 0.00 in0.0 mm 0.43 in10.9 mm
10:30 AM 56.3°F13.5°C 47.7°F8.7°C 73% 6.1 mph WNW9.8 kmh WNW 14.0 mph22.5 kmh 29.30 in992.2 mb - 0.00 in0.0 mm 0.43 in10.9 mm
10:40 AM 56.6°F13.7°C 47.7°F8.7°C 72% 5.6 mph WSW9.0 kmh WSW 11.0 mph17.7 kmh 29.31 in992.6 mb - 0.00 in0.0 mm 0.43 in10.9 mm
10:50 AM 56.7°F13.7°C 47.8°F8.8°C 72% 7.9 mph S12.7 kmh S 17.0 mph27.4 kmh 29.31 in992.6 mb - 0.00 in0.0 mm 0.43 in10.9 mm
11:00 AM 58.3°F14.6°C 49.3°F9.6°C 72% 6.1 mph NW9.8 kmh NW 10.0 mph16.1 kmh 29.31 in992.6 mb - 0.00 in0.0 mm 0.43 in10.9 mm
11:10 AM 59.4°F15.2°C 48.8°F9.3°C 68% 8.5 mph WSW13.7 kmh WSW 20.0 mph32.2 kmh 29.31 in992.6 mb - 0.00 in0.0 mm 0.43 in10.9 mm
11:20 AM 59.2°F15.1°C 48.2°F9.0°C 67% 7.3 mph WSW11.7 kmh WSW 10.0 mph16.1 kmh 29.31 in992.6 mb - 0.00 in0.0 mm 0.43 in10.9 mm
11:30 AM 59.0°F15.0°C 48.1°F8.9°C 67% 11.6 mph WNW18.7 kmh WNW 16.0 mph25.7 kmh 29.31 in992.6 mb - 0.00 in0.0 mm 0.43 in10.9 mm
11:40 AM 58.9°F14.9°C 48.0°F8.9°C 67% 7.3 mph WNW11.7 kmh WNW 11.0 mph17.7 kmh 29.32 in992.9 mb - 0.00 in0.0 mm 0.43 in10.9 mm
11:50 AM 59.0°F15.0°C 47.2°F8.4°C 65% 6.6 mph WNW10.6 kmh WNW 12.0 mph19.3 kmh 29.32 in992.9 mb - 0.00 in0.0 mm 0.43 in10.9 mm
12:00 PM 57.9°F14.4°C 46.6°F8.1°C 66% 6.1 mph W9.8 kmh W 12.0 mph19.3 kmh 29.32 in992.9 mb - 0.00 in0.0 mm 0.43 in10.9 mm
12:10 PM 57.7°F14.3°C 47.6°F8.7°C 69% 4.6 mph NW7.4 kmh NW 9.0 mph14.5 kmh 29.32 in992.9 mb - 0.00 in0.0 mm 0.43 in10.9 mm
12:20 PM 57.8°F14.3°C 46.9°F8.3°C 67% 6.0 mph W9.7 kmh W 12.0 mph19.3 kmh 29.32 in992.9 mb - 0.00 in0.0 mm 0.43 in10.9 mm
12:30 PM 58.6°F14.8°C 48.5°F9.2°C 69% 6.3 mph WSW10.1 kmh WSW 20.0 mph32.2 kmh 29.32 in992.9 mb - 0.00 in0.0 mm 0.43 in10.9 mm
12:40 PM 60.7°F15.9°C 47.6°F8.7°C 62% 7.8 mph NNW12.6 kmh NNW 17.0 mph27.4 kmh 29.33 in993.2 mb - 0.00 in0.0 mm 0.43 in10.9 mm
12:50 PM 61.3°F16.3°C 47.3°F8.5°C 60% 11.8 mph WSW19.0 kmh WSW 23.0 mph37.0 kmh 29.32 in992.9 mb - 0.00 in0.0 mm 0.43 in10.9 mm
01:00 PM 61.7°F16.5°C 48.2°F9.0°C 61% 5.6 mph NW9.0 kmh NW 11.0 mph17.7 kmh 29.33 in993.2 mb - 0.00 in0.0 mm 0.43 in10.9 mm
01:10 PM 62.2°F16.8°C 48.1°F8.9°C 60% 8.1 mph SW13.0 kmh SW 13.0 mph20.9 kmh 29.33 in993.2 mb - 0.00 in0.0 mm 0.43 in10.9 mm
01:20 PM 61.4°F16.3°C 48.3°F9.1°C 62% 11.9 mph WSW19.2 kmh WSW 20.0 mph32.2 kmh 29.34 in993.6 mb - 0.00 in0.0 mm 0.43 in10.9 mm
01:30 PM 59.8°F15.4°C 48.0°F8.9°C 65% 6.1 mph NNW9.8 kmh NNW 11.0 mph17.7 kmh 29.34 in993.6 mb - 0.00 in0.0 mm 0.43 in10.9 mm
01:40 PM 60.1°F15.6°C 47.0°F8.3°C 62% 9.8 mph NNE15.8 kmh NNE 15.0 mph24.1 kmh 29.34 in993.6 mb - 0.00 in0.0 mm 0.43 in10.9 mm
01:50 PM 60.6°F15.9°C 47.9°F8.8°C 63% 7.7 mph WSW12.4 kmh WSW 18.0 mph29.0 kmh 29.34 in993.6 mb - 0.00 in0.0 mm 0.43 in10.9 mm
02:00 PM 60.6°F15.9°C 46.6°F8.1°C 60% 8.5 mph NW13.7 kmh NW 23.0 mph37.0 kmh 29.34 in993.6 mb - 0.00 in0.0 mm 0.43 in10.9 mm
02:10 PM 60.0°F15.6°C 46.0°F7.8°C 60% 8.3 mph NW13.4 kmh NW 15.0 mph24.1 kmh 29.35 in993.9 mb - 0.00 in0.0 mm 0.43 in10.9 mm
02:20 PM 58.5°F14.7°C 45.9°F7.7°C 63% 6.4 mph NW10.3 kmh NW 19.0 mph30.6 kmh 29.35 in993.9 mb - 0.00 in0.0 mm 0.43 in10.9 mm
02:30 PM 58.9°F14.9°C 47.1°F8.4°C 65% 8.6 mph W13.8 kmh W 12.0 mph19.3 kmh 29.35 in993.9 mb - 0.00 in0.0 mm 0.43 in10.9 mm
02:40 PM 59.3°F15.2°C 47.5°F8.6°C 65% 6.5 mph NNW10.5 kmh NNW 11.0 mph17.7 kmh 29.35 in993.9 mb - 0.00 in0.0 mm 0.43 in10.9 mm
02:50 PM 58.6°F14.8°C 46.5°F8.1°C 64% 8.4 mph SW13.5 kmh SW 16.0 mph25.7 kmh 29.35 in993.9 mb - 0.00 in0.0 mm 0.43 in10.9 mm
03:00 PM 57.8°F14.3°C 46.5°F8.1°C 66% 4.7 mph WNW7.6 kmh WNW 9.0 mph14.5 kmh 29.36 in994.2 mb - 0.00 in0.0 mm 0.43 in10.9 mm
03:10 PM 57.0°F13.9°C 46.5°F8.1°C 68% 3.5 mph NW5.6 kmh NW 6.0 mph9.7 kmh 29.36 in994.2 mb - 0.00 in0.0 mm 0.43 in10.9 mm
03:20 PM 57.0°F13.9°C 46.1°F7.8°C 67% 6.7 mph SW10.8 kmh SW 9.0 mph14.5 kmh 29.36 in994.2 mb - 0.00 in0.0 mm 0.43 in10.9 mm
03:30 PM 57.7°F14.3°C 46.4°F8.0°C 66% 4.6 mph WSW7.4 kmh WSW 10.0 mph16.1 kmh 29.35 in993.9 mb - 0.00 in0.0 mm 0.43 in10.9 mm
03:40 PM 58.1°F14.5°C 46.8°F8.2°C 66% 7.5 mph NW12.1 kmh NW 11.0 mph17.7 kmh 29.35 in993.9 mb - 0.00 in0.0 mm 0.43 in10.9 mm
03:50 PM 58.6°F14.8°C 46.4°F8.0°C 64% 10.1 mph SW16.3 kmh SW 17.0 mph27.4 kmh 29.35 in993.9 mb - 0.00 in0.0 mm 0.43 in10.9 mm
04:00 PM 58.5°F14.7°C 46.4°F8.0°C 64% 6.7 mph NW10.8 kmh NW 12.0 mph19.3 kmh 29.35 in993.9 mb - 0.00 in0.0 mm 0.43 in10.9 mm
04:10 PM 57.5°F14.2°C 46.6°F8.1°C 67% 7.9 mph WSW12.7 kmh WSW 15.0 mph24.1 kmh 29.36 in994.2 mb - 0.00 in0.0 mm 0.43 in10.9 mm
04:20 PM 56.2°F13.4°C 46.2°F7.9°C 69% 4.7 mph NNW7.6 kmh NNW 8.0 mph12.9 kmh 29.36 in994.2 mb - 0.00 in0.0 mm 0.43 in10.9 mm
04:30 PM 55.5°F13.1°C 46.2°F7.9°C 71% 7.2 mph WSW11.6 kmh WSW 11.0 mph17.7 kmh 29.36 in994.2 mb - 0.00 in0.0 mm 0.43 in10.9 mm
04:40 PM 55.8°F13.2°C 46.6°F8.1°C 71% 6.4 mph SW10.3 kmh SW 9.0 mph14.5 kmh 29.36 in994.2 mb - 0.00 in0.0 mm 0.43 in10.9 mm
04:50 PM 56.2°F13.4°C 46.9°F8.3°C 71% 7.2 mph W11.6 kmh W 11.0 mph17.7 kmh 29.36 in994.2 mb - 0.00 in0.0 mm 0.43 in10.9 mm
05:00 PM 56.1°F13.4°C 46.8°F8.2°C 71% 6.3 mph WSW10.1 kmh WSW 11.0 mph17.7 kmh 29.36 in994.2 mb - 0.00 in0.0 mm 0.43 in10.9 mm
05:10 PM 56.2°F13.4°C 47.3°F8.5°C 72% 6.1 mph SW9.8 kmh SW 10.0 mph16.1 kmh 29.37 in994.6 mb - 0.00 in0.0 mm 0.43 in10.9 mm
05:20 PM 55.8°F13.2°C 46.5°F8.1°C 71% 4.8 mph WSW7.7 kmh WSW 10.0 mph16.1 kmh 29.37 in994.6 mb - 0.00 in0.0 mm 0.43 in10.9 mm
05:30 PM 55.2°F12.9°C 46.3°F7.9°C 72% 5.1 mph WSW8.2 kmh WSW 5.0 mph8.0 kmh 29.37 in994.6 mb - 0.00 in0.0 mm 0.43 in10.9 mm
05:40 PM 54.9°F12.7°C 46.4°F8.0°C 73% 7.0 mph WSW11.3 kmh WSW 9.0 mph14.5 kmh 29.37 in994.6 mb - 0.00 in0.0 mm 0.43 in10.9 mm
05:50 PM 54.7°F12.6°C 46.6°F8.1°C 74% 5.8 mph SSW9.3 kmh SSW 11.0 mph17.7 kmh 29.37 in994.6 mb - 0.00 in0.0 mm 0.43 in10.9 mm
06:00 PM 54.6°F12.6°C 46.5°F8.1°C 74% 4.8 mph WSW7.7 kmh WSW 8.0 mph12.9 kmh 29.38 in994.9 mb - 0.00 in0.0 mm 0.43 in10.9 mm
06:10 PM 54.5°F12.5°C 46.7°F8.2°C 75% 5.9 mph SW9.5 kmh SW 8.0 mph12.9 kmh 29.38 in994.9 mb - 0.00 in0.0 mm 0.43 in10.9 mm
06:20 PM 54.2°F12.3°C 46.4°F8.0°C 75% 4.4 mph SW7.1 kmh SW 9.0 mph14.5 kmh 29.38 in994.9 mb - 0.00 in0.0 mm 0.43 in10.9 mm
06:30 PM 53.7°F12.1°C 46.3°F7.9°C 76% 5.1 mph W8.2 kmh W 6.0 mph9.7 kmh 29.38 in994.9 mb - 0.00 in0.0 mm 0.43 in10.9 mm
06:40 PM 53.1°F11.7°C 45.7°F7.6°C 76% 4.1 mph WSW6.6 kmh WSW 10.0 mph16.1 kmh 29.39 in995.3 mb - 0.00 in0.0 mm 0.43 in10.9 mm
06:50 PM 52.6°F11.4°C 45.6°F7.6°C 77% 2.5 mph WSW4.0 kmh WSW 4.0 mph6.4 kmh 29.39 in995.3 mb - 0.00 in0.0 mm 0.43 in10.9 mm
07:00 PM 52.3°F11.3°C 45.6°F7.6°C 78% 2.8 mph SW4.5 kmh SW 5.0 mph8.0 kmh 29.40 in995.6 mb - 0.00 in0.0 mm 0.43 in10.9 mm
07:10 PM 51.9°F11.1°C 45.6°F7.6°C 79% 1.0 mph W1.6 kmh W 3.0 mph4.8 kmh 29.40 in995.6 mb - 0.00 in0.0 mm 0.43 in10.9 mm
07:20 PM 51.8°F11.0°C 45.8°F7.7°C 80% Calm Calm -- 29.41 in995.9 mb - 0.00 in0.0 mm 0.43 in10.9 mm
07:30 PM 51.5°F10.8°C 45.5°F7.5°C 80% 0.4 mph WSW0.6 kmh WSW 2.0 mph3.2 kmh 29.41 in995.9 mb - 0.00 in0.0 mm 0.43 in10.9 mm
07:40 PM 51.2°F10.7°C 45.6°F7.6°C 81% 2.1 mph W3.4 kmh W 4.0 mph6.4 kmh 29.41 in995.9 mb - 0.00 in0.0 mm 0.43 in10.9 mm
07:50 PM 51.0°F10.6°C 45.7°F7.6°C 82% 2.6 mph WSW4.2 kmh WSW 6.0 mph9.7 kmh 29.41 in995.9 mb - 0.00 in0.0 mm 0.43 in10.9 mm
08:00 PM 50.9°F10.5°C 45.9°F7.7°C 83% 2.4 mph WSW3.9 kmh WSW 5.0 mph8.0 kmh 29.41 in995.9 mb - 0.00 in0.0 mm 0.43 in10.9 mm
08:10 PM 50.8°F10.4°C 45.8°F7.7°C 83% 0.9 mph W1.4 kmh W 3.0 mph4.8 kmh 29.41 in995.9 mb - 0.00 in0.0 mm 0.43 in10.9 mm
08:20 PM 50.8°F10.4°C 46.1°F7.8°C 84% 0.8 mph W1.3 kmh W 4.0 mph6.4 kmh 29.41 in995.9 mb - 0.00 in0.0 mm 0.43 in10.9 mm
08:30 PM 50.8°F10.4°C 46.1°F7.8°C 84% 0.7 mph NW1.1 kmh NW 3.0 mph4.8 kmh 29.42 in996.3 mb - 0.00 in0.0 mm 0.43 in10.9 mm
08:40 PM 50.7°F10.4°C 46.0°F7.8°C 84% 0.4 mph NW0.6 kmh NW 1.0 mph1.6 kmh 29.42 in996.3 mb - 0.00 in0.0 mm 0.43 in10.9 mm
08:50 PM 50.6°F10.3°C 45.9°F7.7°C 84% 0.4 mph NW0.6 kmh NW 3.0 mph4.8 kmh 29.42 in996.3 mb - 0.00 in0.0 mm 0.43 in10.9 mm
09:00 PM 50.5°F10.3°C 45.8°F7.7°C 84% Calm Calm -- 29.42 in996.3 mb - 0.00 in0.0 mm 0.43 in10.9 mm
09:10 PM 50.4°F10.2°C 46.1°F7.8°C 85% Calm Calm -- 29.43 in996.6 mb - 0.00 in0.0 mm 0.43 in10.9 mm
09:20 PM 50.4°F10.2°C 46.1°F7.8°C 85% 0.6 mph NW1.0 kmh NW 3.0 mph4.8 kmh 29.43 in996.6 mb - 0.00 in0.0 mm 0.43 in10.9 mm
09:30 PM 50.4°F10.2°C 46.1°F7.8°C 85% 0.5 mph NW0.8 kmh NW 1.0 mph1.6 kmh 29.43 in996.6 mb - 0.00 in0.0 mm 0.43 in10.9 mm
09:40 PM 50.5°F10.3°C 46.2°F7.9°C 85% 0.8 mph W1.3 kmh W 1.0 mph1.6 kmh 29.44 in997.0 mb - 0.00 in0.0 mm 0.43 in10.9 mm
09:50 PM 50.7°F10.4°C 46.7°F8.2°C 86% Calm Calm 1.0 mph1.6 kmh 29.44 in997.0 mb - 0.00 in0.0 mm 0.43 in10.9 mm
10:00 PM 50.8°F10.4°C 46.8°F8.2°C 86% 0.2 mph W0.3 kmh W 2.0 mph3.2 kmh 29.44 in997.0 mb - 0.00 in0.0 mm 0.43 in10.9 mm
10:10 PM 50.8°F10.4°C 47.1°F8.4°C 87% 0.2 mph W0.3 kmh W 2.0 mph3.2 kmh 29.44 in997.0 mb - 0.00 in0.0 mm 0.43 in10.9 mm
10:20 PM 50.7°F10.4°C 47.3°F8.5°C 88% 0.6 mph W1.0 kmh W 4.0 mph6.4 kmh 29.45 in997.3 mb - 0.01 in0.3 mm 0.43 in10.9 mm
10:30 PM 50.6°F10.3°C 47.2°F8.4°C 88% 0.3 mph W0.5 kmh W 1.0 mph1.6 kmh 29.45 in997.3 mb - 0.00 in0.0 mm 0.43 in10.9 mm
10:40 PM 50.5°F10.3°C 47.4°F8.6°C 89% 0.2 mph W0.3 kmh W 1.0 mph1.6 kmh 29.45 in997.3 mb - 0.01 in0.3 mm 0.44 in11.2 mm
10:50 PM 50.3°F10.2°C 47.2°F8.4°C 89% 2.4 mph W3.9 kmh W 5.0 mph8.0 kmh 29.45 in997.3 mb - 0.00 in0.0 mm 0.44 in11.2 mm
11:00 PM 50.2°F10.1°C 47.4°F8.6°C 90% 0.2 mph WNW0.3 kmh WNW 1.0 mph1.6 kmh 29.45 in997.3 mb - 0.01 in0.3 mm 0.42 in10.7 mm
11:10 PM 50.1°F10.1°C 47.3°F8.5°C 90% 1.1 mph W1.8 kmh W 2.0 mph3.2 kmh 29.45 in997.3 mb - 0.00 in0.0 mm 0.42 in10.7 mm
11:20 PM 50.0°F10.0°C 47.2°F8.4°C 90% 0.6 mph W1.0 kmh W 1.0 mph1.6 kmh 29.45 in997.3 mb - 0.00 in0.0 mm 0.42 in10.7 mm
11:30 PM 49.9°F9.9°C 47.4°F8.6°C 91% 1.2 mph WNW1.9 kmh WNW 2.0 mph3.2 kmh 29.45 in997.3 mb - 0.01 in0.3 mm 0.01 in0.3 mm
11:40 PM 49.9°F9.9°C 47.4°F8.6°C 91% 1.3 mph NW2.1 kmh NW 4.0 mph6.4 kmh 29.45 in997.3 mb - 0.00 in0.0 mm 0.01 in0.3 mm
11:50 PM 49.8°F9.9°C 47.3°F8.5°C 91% 1.2 mph WSW1.9 kmh WSW 2.0 mph3.2 kmh 29.45 in997.3 mb - 0.01 in0.3 mm 0.02 in0.5 mm